Latest Coastal Weather Observations for Marion Reef

IDQ60701

Issued at 2:12 am EST Monday 5 December 2016 (issued every 10 minutes, with the page automatically refreshed every 10 minutes)

About coastal observations | Map of coastal stations | Coastal observations for QLD | Marine services | Other Formats
Station Details ID: 200704 Name: MARION REEF Lat: -19.10 Lon: 152.39 Height: 2.0 m
Data from the previous 72 hours. | See also: Recent months for locations in Queensland
Date/Time
EST
Temp
°C
Wind Pressure Rain since
9am
mm
Weather Cloud Vis
km
Sea
Height
m
Swell
Dir  Spd
kts
Gust
kts
hPa Trend Height
m
Period
s
Dir
05/02:00am 25.9 E 18 21 1012.7 - - - - - - - - -
05/01:30am 26.0 E 18 21 1013.1 - - - - - - - - -
05/01:00am 25.9 E 18 22 1013.3 - - - - - - - - -
05/12:30am 25.8 E 18 21 1013.7 - - - - - - - - -
05/12:00am 25.8 E 19 22 1013.7 - - - - - - - - -
 
Date/Time
EST
Temp
°C
Wind Pressure Rain since
9am
mm
Weather Cloud Vis
km
Sea
Height
m
Swell
Dir  Spd
kts
Gust
kts
hPa Trend Height
m
Period
s
Dir
04/11:30pm 25.6 E 19 22 1014.0 - - - - - - - - -
04/11:00pm 25.9 E 18 22 1014.1 - - - - - - - - -
04/10:30pm 25.9 E 18 20 1014.4 - - - - - - - - -
04/10:00pm 25.9 E 19 21 1014.3 - - - - - - - - -
04/09:30pm 25.7 ESE 18 21 1014.2 - - - - - - - - -
04/09:00pm 25.6 ESE 18 21 1014.0 - - - - - - - - -
04/08:30pm 26.0 ESE 16 19 1013.8 - - - - - - - - -
04/08:00pm 25.9 ESE 16 19 1013.6 - - - - - - - - -
04/07:30pm 25.8 ESE 15 17 1013.4 - - - - - - - - -
04/07:00pm 26.1 ESE 16 19 1013.0 - - - - - - - - -
04/06:30pm 25.7 ESE 16 18 1012.9 - - - - - - - - -
04/06:00pm 26.0 SE 16 18 1012.6 - - - - - - - - -
04/05:30pm 26.3 SE 14 17 1012.5 - - - - - - - - -
04/05:00pm 26.4 SE 15 17 1012.3 - - - - - - - - -
04/04:30pm 26.4 SE 14 16 1012.3 - - - - - - - - -
04/04:00pm 26.4 SE 14 16 1012.1 - - - - - - - - -
04/03:30pm 26.3 SE 13 15 1012.2 - - - - - - - - -
04/03:00pm 26.6 SE 14 16 1012.2 - - - - - - - - -
04/02:30pm 26.3 SE 13 15 1012.5 - - - - - - - - -
04/02:00pm 26.2 SE 13 16 1012.7 - - - - - - - - -
04/01:30pm 26.2 SE 14 16 1013.0 - - - - - - - - -
04/01:00pm 26.3 ESE 14 16 1013.0 - - - - - - - - -
04/12:30pm 26.5 ESE 13 16 1013.2 - - - - - - - - -
04/12:00pm 26.5 E 14 15 1013.3 - - - - - - - - -
04/11:30am 26.3 E 15 17 1013.7 - - - - - - - - -
04/11:00am 26.5 E 14 17 1013.9 - - - - - - - - -
04/10:30am 26.6 E 14 16 1014.2 - - - - - - - - -
04/10:00am 26.5 E 13 16 1014.1 - - - - - - - - -
04/09:30am 26.3 E 15 17 1014.5 - - - - - - - - -
04/09:00am 26.4 E 15 18 1014.9 - - - - - - - - -
04/08:30am 26.1 E 16 18 1014.9 - - - - - - - - -
04/08:00am 26.4 ESE 15 17 1015.1 - - - - - - - - -
04/07:30am 26.2 ESE 18 20 1015.5 - - - - - - - - -
04/07:00am 26.3 ESE 16 18 1015.1 - - - - - - - - -
04/06:30am 26.1 SE 19 23 1015.2 - - - - - - - - -
04/06:00am 25.9 ESE 18 21 1015.2 - - - - - - - - -
04/05:30am 26.2 ESE 17 19 1014.9 - - - - - - - - -
04/05:00am 25.7 E 15 17 1013.9 - - - - - - - - -
04/04:30am 26.1 E 15 17 1013.6 - - - - - - - - -
04/04:00am 25.6 E 15 17 1013.5 - - - - - - - - -
04/03:30am 25.8 E 15 17 1013.6 - - - - - - - - -
04/03:00am 25.9 E 17 18 1013.5 - - - - - - - - -
04/02:30am 25.8 E 15 18 1013.9 - - - - - - - - -
04/02:00am 25.8 E 17 20 1013.9 - - - - - - - - -
04/01:30am 26.1 ESE 16 19 1014.1 - - - - - - - - -
04/01:00am 26.3 E 14 17 1014.1 - - - - - - - - -
04/12:30am 26.0 E 15 17 1014.3 - - - - - - - - -
04/12:00am 26.1 E 14 16 1014.1 - - - - - - - - -
 
Date/Time
EST
Temp
°C
Wind Pressure Rain since
9am
mm
Weather Cloud Vis
km
Sea
Height
m
Swell
Dir  Spd
kts
Gust
kts
hPa Trend Height
m
Period
s
Dir
03/11:30pm 26.2 E 14 16 1014.2 - - - - - - - - -
03/11:00pm 26.0 E 13 15 1014.2 - - - - - - - - -
03/10:30pm 26.1 E 15 17 1014.3 - - - - - - - - -
03/10:00pm 26.2 ESE 14 - 1014.2 - - - - - - - - -
03/09:30pm 26.0 ESE 14 16 1014.3 - - - - - - - - -
03/09:00pm 26.1 ESE 13 - 1014.1 - - - - - - - - -
03/08:00pm 26.3 ESE 11 15 1013.8 - - - - - - - - -
03/07:30pm 26.4 E 12 14 1013.9 - - - - - - - - -
03/07:00pm 26.4 ESE 13 15 1013.6 - - - - - - - - -
03/06:30pm 26.6 E 14 16 1013.5 - - - - - - - - -
03/06:00pm 26.5 ESE 13 15 1013.2 - - - - - - - - -
03/05:30pm 26.7 ESE 12 15 1013.2 - - - - - - - - -
03/05:00pm 26.7 ESE 11 14 1012.8 - - - - - - - - -
03/04:30pm 26.8 ESE 12 14 1012.6 - - - - - - - - -
03/04:00pm 26.6 ESE 13 14 1012.2 - - - - - - - - -
03/03:30pm 26.5 ESE 13 14 1012.1 - - - - - - - - -
03/03:00pm 26.5 ESE 13 15 1012.2 - - - - - - - - -
03/02:30pm 26.6 ESE 13 15 1012.4 - - - - - - - - -
03/02:00pm 26.6 ESE 13 15 1012.5 - - - - - - - - -
03/01:30pm 26.6 E 12 14 1012.9 - - - - - - - - -
03/01:00pm 26.7 E 13 15 1013.2 - - - - - - - - -
03/12:30pm 26.7 E 12 14 1013.5 - - - - - - - - -
03/12:00pm 26.5 E 13 14 1013.7 - - - - - - - - -
03/11:30am 26.6 E 13 15 1014.0 - - - - - - - - -
03/11:00am 26.3 E 12 14 1014.1 - - - - - - - - -
03/10:30am 26.4 E 13 15 1014.5 - - - - - - - - -
03/10:00am 26.6 E 14 16 1014.4 - - - - - - - - -
03/09:30am 26.4 E 14 16 1014.5 - - - - - - - - -
03/09:00am 26.2 E 14 16 1014.3 - - - - - - - - -
03/08:30am 26.5 E 14 16 1014.4 - - - - - - - - -
03/08:00am 26.5 E 14 17 1014.1 - - - - - - - - -
03/07:30am 26.3 E 14 17 1013.8 - - - - - - - - -
03/07:00am 25.9 E 14 18 1013.5 - - - - - - - - -
03/06:30am 25.8 E 15 17 1013.3 - - - - - - - - -
03/06:00am 25.5 E 15 17 1012.9 - - - - - - - - -
03/05:30am 25.6 E 14 17 1012.8 - - - - - - - - -
03/05:00am 25.1 E 14 16 1012.2 - - - - - - - - -
03/04:30am 25.2 E 14 17 1012.0 - - - - - - - - -
03/04:00am 25.3 E 14 17 1011.7 - - - - - - - - -
03/03:30am 25.2 E 13 16 1011.6 - - - - - - - - -
03/03:00am 25.2 E 13 16 1011.4 - - - - - - - - -
03/02:30am 25.1 E 12 14 1011.4 - - - - - - - - -
03/02:00am 25.1 E 11 14 1011.4 - - - - - - - - -
03/01:30am 25.2 E 12 14 1011.8 - - - - - - - - -
03/01:00am 25.2 ESE 12 14 1012.2 - - - - - - - - -
03/12:30am 25.4 ESE 12 14 1012.8 - - - - - - - - -
03/12:00am 25.5 ESE 12 14 1013.0 - - - - - - - - -
 
Date/Time
EST
Temp
°C
Wind Pressure Rain since
9am
mm
Weather Cloud Vis
km
Sea
Height
m
Swell
Dir  Spd
kts
Gust
kts
hPa Trend Height
m
Period
s
Dir
02/11:30pm 25.7 ESE 12 14 1013.5 - - - - - - - - -
02/11:00pm 25.6 ESE 12 13 1013.5 - - - - - - - - -
02/10:30pm 25.4 ESE 11 13 1013.8 - - - - - - - - -
02/10:00pm 25.5 ESE 11 13 1013.9 - - - - - - - - -
02/09:30pm 25.7 ESE 10 11 1014.1 - - - - - - - - -
02/09:00pm 25.7 ESE 9 11 1014.0 - - - - - - - - -
02/08:30pm 25.8 ESE 9 11 1014.0 - - - - - - - - -
02/08:00pm 25.9 SE 8 11 1013.8 - - - - - - - - -
02/07:30pm 25.8 SE 9 11 1013.8 - - - - - - - - -
02/07:00pm 25.8 SE 8 10 1013.5 - - - - - - - - -
02/06:30pm 25.8 SE 8 9 1013.5 - - - - - - - - -
02/06:00pm 26.0 SSE 6 9 1013.1 - - - - - - - - -
02/05:30pm 26.3 SE 7 9 1012.9 - - - - - - - - -
02/05:00pm 25.9 SE 8 10 1012.6 - - - - - - - - -
02/04:30pm 26.3 SSE 8 9 1012.2 - - - - - - - - -
02/04:00pm 25.9 SE 7 9 1012.3 - - - - - - - - -
02/03:30pm 26.1 SE 8 9 1012.1 - - - - - - - - -
02/03:00pm 26.1 SSE 7 9 1012.1 - - - - - - - - -
02/02:30pm 26.3 SE 7 9 1012.3 - - - - - - - - -
02/02:00pm 26.3 SSE 7 9 1012.3 - - - - - - - - -
02/01:30pm 26.3 SE 7 9 1012.7 - - - - - - - - -
02/01:00pm 26.3 SE 8 9 1012.7 - - - - - - - - -
02/12:30pm 25.9 SE 7 9 1012.9 - - - - - - - - -
02/12:00pm 26.0 SE 8 - 1012.7 - - - - - - - - -
02/11:00am 25.9 ESE 8 - 1013.1 - - - - - - - - -
02/10:00am 26.2 ESE 9 - 1013.3 - - - - - - - - -
02/09:00am 25.8 ESE 9 - 1013.3 - - - - - - - - -
02/08:00am 25.7 ESE 8 - 1012.8 - - - - - - - - -
02/07:00am 25.9 E 8 - 1012.6 - - - - - - - - -
02/06:00am 25.7 ENE 7 - 1012.1 - - - - - - - - -
02/05:00am 25.2 ENE 7 - 1011.3 - - - - - - - - -
02/04:00am 25.1 ENE 11 - 1010.7 - - - - - - - - -
02/03:00am 25.1 E 11 - 1010.5 - - - - - - - - -

Other Formats:

Comma delimited format used in spreadsheet applications
http://www.bom.gov.au/fwo/IDQ60701/IDQ60701.94298.axf

JavaScript Object Notation format (JSON) in row-major order
http://www.bom.gov.au/fwo/IDQ60701/IDQ60701.94298.json